createdAt,value
2022-11-17T00:02:21.737Z,4.50
2022-11-17T00:04:48.852Z,4.53
2022-11-17T00:07:15.824Z,4.80
2022-11-17T00:09:42.788Z,4.67
2022-11-17T00:12:32.569Z,4.27
2022-11-17T00:15:00.185Z,4.40
2022-11-17T00:17:27.992Z,4.33
2022-11-17T00:20:13.390Z,4.60
2022-11-17T00:22:40.370Z,4.70
2022-11-17T00:25:07.626Z,4.40
2022-11-17T00:27:34.631Z,4.50
2022-11-17T00:30:01.564Z,4.30
2022-11-17T00:32:48.382Z,4.10
2022-11-17T00:35:15.332Z,4.20
2022-11-17T00:38:01.335Z,4.70
2022-11-17T00:40:28.371Z,4.27
2022-11-17T00:42:55.364Z,4.23
2022-11-17T00:45:22.282Z,3.70
2022-11-17T00:47:49.213Z,4.30
2022-11-17T00:50:16.297Z,4.10
2022-11-17T00:52:43.216Z,3.97
2022-11-17T00:55:10.166Z,4.20
2022-11-17T00:57:37.134Z,3.83
2022-11-17T01:00:04.393Z,3.90
2022-11-17T01:02:31.338Z,4.03
2022-11-17T01:04:58.204Z,3.57
2022-11-17T01:07:26.034Z,3.50
2022-11-17T01:09:53.069Z,3.10
2022-11-17T01:12:20.041Z,3.53
2022-11-17T01:14:47.191Z,3.00
2022-11-17T01:17:14.166Z,3.33
2022-11-17T01:19:41.165Z,3.30
2022-11-17T01:22:08.236Z,3.00
2022-11-17T01:24:35.137Z,3.00
2022-11-17T01:27:02.127Z,3.23
2022-11-17T01:29:29.001Z,2.77
2022-11-17T01:31:56.173Z,2.93
2022-11-17T01:34:23.025Z,3.20
2022-11-17T01:37:08.512Z,2.97
2022-11-17T01:39:35.479Z,3.10
2022-11-17T01:42:15.173Z,2.57
2022-11-17T01:44:43.884Z,2.40
2022-11-17T01:47:20.997Z,2.53
2022-11-17T01:49:51.606Z,2.40
2022-11-17T01:52:18.760Z,2.23
2022-11-17T01:54:48.582Z,2.50
2022-11-17T01:57:24.532Z,2.40
2022-11-17T02:00:01.983Z,2.30
2022-11-17T02:02:29.101Z,2.00
2022-11-17T02:05:11.832Z,2.30
2022-11-17T02:07:40.763Z,2.27
2022-11-17T02:10:08.294Z,2.20
2022-11-17T02:12:36.361Z,2.00
2022-11-17T02:15:04.594Z,2.40
2022-11-17T02:17:42.509Z,1.93
2022-11-17T02:20:22.881Z,2.70
2022-11-17T02:23:06.063Z,2.13
2022-11-17T02:25:43.149Z,2.50
2022-11-17T02:28:31.655Z,1.97
2022-11-17T02:31:17.190Z,2.43
2022-11-17T02:34:05.077Z,2.17
2022-11-17T02:36:32.290Z,2.03
2022-11-17T02:39:05.162Z,2.10
2022-11-17T02:42:04.593Z,1.77
2022-11-17T02:44:39.798Z,1.73
2022-11-17T02:47:17.703Z,1.83
2022-11-17T02:50:07.085Z,1.97
2022-11-17T02:52:34.591Z,2.00
2022-11-17T02:55:07.530Z,2.53
2022-11-17T02:57:36.880Z,2.40
2022-11-17T03:00:08.891Z,2.27
2022-11-17T03:02:58.668Z,2.47
2022-11-17T03:05:25.517Z,2.43
2022-11-17T03:08:11.266Z,2.63
2022-11-17T03:10:47.782Z,3.00
2022-11-17T03:13:41.079Z,2.70
2022-11-17T03:16:38.484Z,2.30
2022-11-17T03:19:19.892Z,2.67
2022-11-17T03:22:07.977Z,2.70
2022-11-17T03:24:55.670Z,2.60
2022-11-17T03:27:27.773Z,2.57
2022-11-17T03:29:59.801Z,2.57
2022-11-17T03:32:30.434Z,2.30
2022-11-17T03:35:01.574Z,2.50
2022-11-17T03:37:33.746Z,2.60
2022-11-17T03:40:11.015Z,2.70
2022-11-17T03:42:42.156Z,2.80
2022-11-17T03:45:20.834Z,2.90
2022-11-17T03:48:08.495Z,2.80
2022-11-17T03:50:40.859Z,2.60
2022-11-17T03:53:07.960Z,2.47
2022-11-17T03:55:40.801Z,2.60
2022-11-17T03:58:12.955Z,2.47
2022-11-17T04:00:41.297Z,2.40
2022-11-17T04:03:08.245Z,2.47
2022-11-17T04:05:35.210Z,2.40
2022-11-17T04:08:02.084Z,2.20
2022-11-17T04:10:28.942Z,2.60
2022-11-17T04:13:14.372Z,2.17
2022-11-17T04:15:56.364Z,2.30
2022-11-17T04:18:24.064Z,1.93
2022-11-17T04:20:56.328Z,2.20
2022-11-17T04:23:25.129Z,1.87
2022-11-17T04:26:12.962Z,2.10
2022-11-17T04:28:49.173Z,2.17
2022-11-17T04:31:30.060Z,2.40
2022-11-17T04:33:59.267Z,2.50
2022-11-17T04:36:29.664Z,2.20
2022-11-17T04:38:58.557Z,2.10
2022-11-17T04:41:47.075Z,2.23
2022-11-17T04:44:16.382Z,2.00
2022-11-17T04:46:45.933Z,2.10
2022-11-17T04:49:14.600Z,2.80
2022-11-17T04:51:41.947Z,2.70
2022-11-17T04:54:11.073Z,2.77
2022-11-17T04:56:38.740Z,2.63
2022-11-17T04:59:06.040Z,2.80
2022-11-17T05:01:33.457Z,2.97
2022-11-17T05:04:02.710Z,3.57
2022-11-17T05:06:32.616Z,3.60
2022-11-17T05:09:01.691Z,4.07
2022-11-17T05:11:48.610Z,3.83
2022-11-17T05:14:20.100Z,3.40
2022-11-17T05:17:10.842Z,3.70
2022-11-17T05:19:40.800Z,3.57
2022-11-17T05:22:27.749Z,3.67
2022-11-17T05:24:55.504Z,3.63
2022-11-17T05:27:23.129Z,3.73
2022-11-17T05:29:50.319Z,3.60
2022-11-17T05:32:17.641Z,2.90
2022-11-17T05:34:44.555Z,3.40
2022-11-17T05:37:11.571Z,3.00
2022-11-17T05:39:38.617Z,3.20
2022-11-17T05:42:05.728Z,2.83
2022-11-17T05:44:32.577Z,3.17
2022-11-17T05:46:59.723Z,5.10
2022-11-17T05:49:26.579Z,4.37
2022-11-17T05:51:53.497Z,3.87
2022-11-17T05:54:20.645Z,3.33
2022-11-17T05:57:01.705Z,3.00
2022-11-17T05:59:31.574Z,2.80
2022-11-17T06:02:01.444Z,2.67
2022-11-17T06:04:29.318Z,2.60
2022-11-17T06:06:59.618Z,2.07
2022-11-17T06:09:29.174Z,2.43
2022-11-17T06:11:58.601Z,1.80
2022-11-17T06:14:29.423Z,1.63
2022-11-17T06:17:02.836Z,2.03
2022-11-17T06:19:39.493Z,1.80
2022-11-17T06:22:14.135Z,1.53
2022-11-17T06:24:44.732Z,1.63
2022-11-17T06:27:13.460Z,1.67
2022-11-17T06:29:44.383Z,1.90
2022-11-17T06:32:17.576Z,1.60
2022-11-17T06:34:53.643Z,1.50
2022-11-17T06:37:22.941Z,1.70
2022-11-17T06:39:49.931Z,1.47
2022-11-17T06:42:16.788Z,1.60
2022-11-17T06:44:44.156Z,1.50
2022-11-17T06:47:11.131Z,1.30
2022-11-17T06:49:38.072Z,1.47
2022-11-17T06:52:05.024Z,1.57
2022-11-17T06:54:31.878Z,2.70
2022-11-17T06:56:58.817Z,1.33
2022-11-17T06:59:25.728Z,1.50
2022-11-17T07:01:52.720Z,1.40
2022-11-17T07:04:19.609Z,1.80
2022-11-17T07:06:46.538Z,1.60
2022-11-17T07:09:13.351Z,1.50
2022-11-17T07:11:40.309Z,1.60
2022-11-17T07:14:07.244Z,1.60
2022-11-17T07:16:34.235Z,1.53
2022-11-17T07:19:03.454Z,1.30
2022-11-17T07:21:30.474Z,1.53
2022-11-17T07:23:57.594Z,1.70
2022-11-17T07:26:24.497Z,1.40
2022-11-17T07:28:51.435Z,2.30
2022-11-17T07:31:18.355Z,1.77
2022-11-17T07:33:45.214Z,4.37
2022-11-17T07:36:16.927Z,2.83
2022-11-17T07:38:44.067Z,3.03
2022-11-17T07:41:13.867Z,2.00
2022-11-17T07:43:40.837Z,1.97
2022-11-17T07:46:13.391Z,2.17
2022-11-17T07:48:41.458Z,1.80
2022-11-17T07:51:08.638Z,1.20
2022-11-17T07:53:36.217Z,1.47
2022-11-17T07:56:08.518Z,1.10
2022-11-17T07:58:36.462Z,1.27
2022-11-17T08:01:08.260Z,1.27
2022-11-17T08:03:35.237Z,1.00
2022-11-17T08:06:03.919Z,1.10
2022-11-17T08:08:31.058Z,0.70
2022-11-17T08:11:06.022Z,0.70
2022-11-17T08:13:33.765Z,0.43
2022-11-17T08:16:01.067Z,0.50
2022-11-17T08:18:29.264Z,0.40
2022-11-17T08:21:07.519Z,0.40
2022-11-17T08:23:34.964Z,0.63
2022-11-17T08:26:03.521Z,0.30
2022-11-17T08:28:30.643Z,0.20
2022-11-17T08:31:00.069Z,0.30
2022-11-17T08:33:26.934Z,0.20
2022-11-17T08:35:58.267Z,0.47
2022-11-17T08:38:32.009Z,0.27
2022-11-17T08:41:01.980Z,0.10
2022-11-17T08:43:29.021Z,0.27
2022-11-17T08:45:56.116Z,0.33
2022-11-17T08:48:23.369Z,0.30
2022-11-17T08:50:50.900Z,0.10
2022-11-17T08:53:21.013Z,0.20
2022-11-17T08:55:48.159Z,0.30
2022-11-17T08:58:15.607Z,0.23
2022-11-17T09:00:42.912Z,0.20
2022-11-17T09:03:11.465Z,0.50
2022-11-17T09:05:44.429Z,0.50
2022-11-17T09:08:43.901Z,0.33
2022-11-17T09:11:07.774Z,0.20
2022-11-17T09:13:35.673Z,0.30
2022-11-17T09:16:10.700Z,0.40
2022-11-17T09:18:39.015Z,0.43
2022-11-17T09:21:15.532Z,0.23
2022-11-17T09:23:42.840Z,0.20
2022-11-17T09:26:12.681Z,0.50
2022-11-17T09:28:39.919Z,0.30
2022-11-17T09:31:09.340Z,0.60
2022-11-17T09:33:37.194Z,0.57
2022-11-17T09:36:04.357Z,0.50
2022-11-17T09:38:31.211Z,0.70
2022-11-17T09:40:59.592Z,0.80
2022-11-17T09:43:35.153Z,0.50
2022-11-17T09:46:18.320Z,0.57
2022-11-17T09:48:53.818Z,0.80
2022-11-17T09:51:22.737Z,1.17
2022-11-17T09:54:07.154Z,0.73
2022-11-17T09:56:34.327Z,1.17
2022-11-17T09:59:06.121Z,0.77
2022-11-17T10:01:33.145Z,0.97
2022-11-17T10:04:01.436Z,1.10
2022-11-17T10:06:32.161Z,0.70
2022-11-17T10:09:04.547Z,1.10
2022-11-17T10:11:38.686Z,1.17
2022-11-17T10:14:08.539Z,1.20
2022-11-17T10:16:39.929Z,1.37
2022-11-17T10:19:28.706Z,1.63
2022-11-17T10:22:01.661Z,1.17
2022-11-17T10:24:42.398Z,1.60
2022-11-17T10:27:20.085Z,1.40
2022-11-17T10:29:59.886Z,1.53
2022-11-17T10:32:29.251Z,1.87
2022-11-17T10:34:56.133Z,1.80
2022-11-17T10:37:24.424Z,2.53
2022-11-17T10:40:02.262Z,2.00
2022-11-17T10:42:29.181Z,2.17
2022-11-17T10:44:58.552Z,1.80
2022-11-17T10:47:38.285Z,1.77
2022-11-17T10:50:23.361Z,2.27
2022-11-17T10:52:53.000Z,1.50
2022-11-17T10:55:31.684Z,1.80
2022-11-17T10:58:05.228Z,1.90
2022-11-17T11:00:35.349Z,2.43
2022-11-17T11:03:18.218Z,1.83
2022-11-17T11:06:03.918Z,2.53
2022-11-17T11:08:44.799Z,1.73
2022-11-17T11:11:42.566Z,2.00
2022-11-17T11:14:32.765Z,2.07
2022-11-17T11:17:00.108Z,1.87
2022-11-17T11:19:27.758Z,1.83
2022-11-17T11:22:24.940Z,2.20
2022-11-17T11:25:30.156Z,1.93
2022-11-17T11:28:00.149Z,1.90
2022-11-17T11:30:27.442Z,2.10
2022-11-17T11:33:13.280Z,2.20
2022-11-17T11:35:55.462Z,2.03
2022-11-17T11:38:34.453Z,1.80
2022-11-17T11:41:19.135Z,2.20
2022-11-17T11:44:31.327Z,2.10
2022-11-17T11:47:27.408Z,2.10
2022-11-17T11:50:15.342Z,2.00
2022-11-17T11:52:49.815Z,1.90
2022-11-17T11:55:16.796Z,1.43
2022-11-17T11:58:15.391Z,2.20
2022-11-17T12:00:44.686Z,2.00
2022-11-17T12:03:29.877Z,2.20
2022-11-17T12:06:21.730Z,2.03
2022-11-17T12:09:13.456Z,2.30
2022-11-17T12:12:00.542Z,2.00
2022-11-17T12:14:32.426Z,2.13
2022-11-17T12:17:26.264Z,1.90
2022-11-17T12:19:59.658Z,1.97
2022-11-17T12:22:29.683Z,2.07
2022-11-17T12:25:06.214Z,1.90
2022-11-17T12:27:36.207Z,2.20
2022-11-17T12:30:05.758Z,2.10
2022-11-17T12:32:44.984Z,1.80
2022-11-17T12:35:28.918Z,1.80
2022-11-17T12:38:17.777Z,1.90
2022-11-17T12:40:47.817Z,1.70
2022-11-17T12:43:23.935Z,2.13
2022-11-17T12:45:53.902Z,1.83
2022-11-17T12:48:40.276Z,2.00
2022-11-17T12:51:21.646Z,1.97
2022-11-17T12:54:24.449Z,1.90
2022-11-17T12:57:02.995Z,1.40
2022-11-17T12:59:51.906Z,1.60
2022-11-17T13:02:56.062Z,1.80
2022-11-17T13:05:26.105Z,1.83
2022-11-17T13:08:09.722Z,1.60
2022-11-17T13:10:36.582Z,1.77
2022-11-17T13:13:36.808Z,1.83
2022-11-17T13:16:04.783Z,2.07
2022-11-17T13:18:31.852Z,1.90
2022-11-17T13:20:59.715Z,1.80
2022-11-17T13:23:29.433Z,1.70
2022-11-17T13:26:11.259Z,1.50
2022-11-17T13:28:38.288Z,2.20
2022-11-17T13:31:05.379Z,2.00
2022-11-17T13:33:38.411Z,1.57
2022-11-17T13:36:16.578Z,1.67
2022-11-17T13:38:51.738Z,1.93
2022-11-17T13:41:21.825Z,1.63
2022-11-17T13:43:51.206Z,1.80
2022-11-17T13:46:18.362Z,1.40
2022-11-17T13:48:47.078Z,1.30
2022-11-17T13:51:20.303Z,1.50
2022-11-17T13:53:54.859Z,1.53
2022-11-17T13:56:52.733Z,1.47
2022-11-17T13:59:30.203Z,2.27
2022-11-17T14:02:15.295Z,1.63
2022-11-17T14:05:07.601Z,1.00
2022-11-17T14:07:37.093Z,1.27
2022-11-17T14:10:22.424Z,1.27
2022-11-17T14:12:51.959Z,1.30
2022-11-17T14:15:24.814Z,1.63
2022-11-17T14:17:54.209Z,1.10
2022-11-17T14:20:41.517Z,1.17
2022-11-17T14:23:11.115Z,2.13
2022-11-17T14:25:40.764Z,1.30
2022-11-17T14:28:18.709Z,1.40
2022-11-17T14:30:50.084Z,1.40
2022-11-17T14:33:17.004Z,1.47
2022-11-17T14:35:45.548Z,1.60
2022-11-17T14:38:20.327Z,1.90
2022-11-17T14:40:49.286Z,1.70
2022-11-17T14:43:21.572Z,1.57
2022-11-17T14:45:49.691Z,2.30
2022-11-17T14:48:20.375Z,1.87
2022-11-17T14:50:48.453Z,1.40
2022-11-17T14:53:15.523Z,1.27
2022-11-17T14:55:42.516Z,1.50
2022-11-17T14:58:10.152Z,1.30
2022-11-17T15:00:37.649Z,1.43
2022-11-17T15:03:05.037Z,1.20
2022-11-17T15:05:32.551Z,1.40
2022-11-17T15:07:59.508Z,1.93
2022-11-17T15:10:26.408Z,1.83
2022-11-17T15:12:53.452Z,1.60
2022-11-17T15:15:20.459Z,1.80
2022-11-17T15:17:47.451Z,1.70
2022-11-17T15:20:14.469Z,2.23
2022-11-17T15:22:41.369Z,1.67
2022-11-17T15:25:09.146Z,1.20
2022-11-17T15:27:36.070Z,1.40
2022-11-17T15:30:03.853Z,1.20
2022-11-17T15:32:30.789Z,2.00
2022-11-17T15:34:57.625Z,1.47
2022-11-17T15:37:25.306Z,1.27
2022-11-17T15:39:52.225Z,1.80
2022-11-17T15:42:19.312Z,1.47
2022-11-17T15:44:46.332Z,1.80
2022-11-17T15:47:13.330Z,2.10
2022-11-17T15:49:40.234Z,2.20
2022-11-17T15:52:07.138Z,3.17
2022-11-17T15:54:34.076Z,3.83
2022-11-17T15:57:02.970Z,3.70
2022-11-17T15:59:30.008Z,3.67
2022-11-17T16:01:57.338Z,4.90
2022-11-17T16:04:24.309Z,5.03
2022-11-17T16:06:52.557Z,2.60
2022-11-17T16:09:19.803Z,2.10
2022-11-17T16:11:46.938Z,2.40
2022-11-17T16:14:15.052Z,1.40
2022-11-17T16:16:43.836Z,2.60
2022-11-17T16:19:10.786Z,1.90
2022-11-17T16:21:37.781Z,2.53
2022-11-17T16:24:05.371Z,2.80
2022-11-17T16:26:32.573Z,2.60
2022-11-17T16:29:02.889Z,2.90
2022-11-17T16:31:32.220Z,2.00
2022-11-17T16:34:01.282Z,1.70
2022-11-17T16:36:35.882Z,2.00
2022-11-17T16:39:05.990Z,2.67
2022-11-17T16:41:35.334Z,2.57
2022-11-17T16:44:03.117Z,2.00
2022-11-17T16:46:31.544Z,2.60
2022-11-17T16:49:03.351Z,2.30
2022-11-17T16:51:30.841Z,1.80
2022-11-17T16:54:04.016Z,1.47
2022-11-17T16:56:31.602Z,1.70
2022-11-17T16:58:58.953Z,2.20
2022-11-17T17:01:31.458Z,2.90
2022-11-17T17:04:00.478Z,3.83
2022-11-17T17:06:28.454Z,3.00
2022-11-17T17:08:57.483Z,2.20
2022-11-17T17:11:25.436Z,2.00
2022-11-17T17:13:52.336Z,1.40
2022-11-17T17:16:20.358Z,1.33
2022-11-17T17:18:47.498Z,1.50
2022-11-17T17:21:17.684Z,1.73
2022-11-17T17:23:45.723Z,2.53
2022-11-17T17:26:16.857Z,2.33
2022-11-17T17:28:45.805Z,2.80
2022-11-17T17:31:19.797Z,2.80
2022-11-17T17:33:50.409Z,2.70
2022-11-17T17:36:23.921Z,2.67
2022-11-17T17:38:55.758Z,2.80
2022-11-17T17:41:26.162Z,2.93
2022-11-17T17:44:04.515Z,2.83
2022-11-17T17:46:34.625Z,2.33
2022-11-17T17:49:01.524Z,2.50
2022-11-17T17:51:29.705Z,1.90
2022-11-17T17:54:00.840Z,1.50
2022-11-17T17:56:28.436Z,1.40
2022-11-17T17:58:56.368Z,1.47
2022-11-17T18:01:25.127Z,0.90
2022-11-17T18:03:53.980Z,1.10
2022-11-17T18:06:22.512Z,1.10
2022-11-17T18:08:49.672Z,1.67
2022-11-17T18:11:20.755Z,1.47
2022-11-17T18:13:50.651Z,1.80
2022-11-17T18:16:21.534Z,6.20
2022-11-17T18:18:49.291Z,4.13
2022-11-17T18:21:20.048Z,1.87
2022-11-17T18:23:47.315Z,1.60
2022-11-17T18:26:16.983Z,1.70
2022-11-17T18:28:54.794Z,1.50
2022-11-17T18:31:24.071Z,1.37
2022-11-17T18:33:56.227Z,1.60
2022-11-17T18:36:23.746Z,3.53
2022-11-17T18:38:52.131Z,1.20
2022-11-17T18:41:20.729Z,1.23
2022-11-17T18:43:48.270Z,1.10
2022-11-17T18:46:18.095Z,0.83
2022-11-17T18:48:47.927Z,1.43
2022-11-17T18:51:23.411Z,1.50
2022-11-17T18:53:51.800Z,2.80
2022-11-17T18:56:25.125Z,3.00
2022-11-17T18:58:52.385Z,4.43
2022-11-17T19:01:19.325Z,7.63
2022-11-17T19:03:48.881Z,1.40
2022-11-17T19:06:17.526Z,1.00
2022-11-17T19:08:44.890Z,1.83
2022-11-17T19:11:12.445Z,1.90
2022-11-17T19:13:41.652Z,2.27
2022-11-17T19:16:23.856Z,1.53
2022-11-17T19:18:53.037Z,1.67
2022-11-17T19:21:28.657Z,2.30
2022-11-17T19:23:58.853Z,2.33
2022-11-17T19:26:31.281Z,1.50
2022-11-17T19:29:01.088Z,1.20
2022-11-17T19:31:28.754Z,1.40
2022-11-17T19:33:56.809Z,1.20
2022-11-17T19:36:34.318Z,2.00
2022-11-17T19:39:02.723Z,0.80
2022-11-17T19:41:34.074Z,0.90
2022-11-17T19:44:04.114Z,0.60
2022-11-17T19:46:32.383Z,0.80
2022-11-17T19:48:59.365Z,0.90
2022-11-17T19:51:31.744Z,1.00
2022-11-17T19:54:02.007Z,0.93
2022-11-17T19:56:30.775Z,0.70
2022-11-17T19:58:58.143Z,1.03
2022-11-17T20:01:27.910Z,1.60
2022-11-17T20:03:55.779Z,2.53
2022-11-17T20:06:27.367Z,2.07
2022-11-17T20:08:56.122Z,3.63
2022-11-17T20:11:28.306Z,3.43
2022-11-17T20:13:55.591Z,5.23
2022-11-17T20:16:24.734Z,3.30
2022-11-17T20:18:57.191Z,3.70
2022-11-17T20:21:25.414Z,2.20
2022-11-17T20:23:52.922Z,4.20
2022-11-17T20:26:25.476Z,2.00
2022-11-17T20:28:53.217Z,1.40
2022-11-17T20:31:22.619Z,3.47
2022-11-17T20:33:49.504Z,3.03
2022-11-17T20:36:20.518Z,2.23
2022-11-17T20:38:59.060Z,3.10
2022-11-17T20:41:26.481Z,2.00
2022-11-17T20:43:55.300Z,2.73
2022-11-17T20:46:23.728Z,2.30
2022-11-17T20:48:51.229Z,3.50
2022-11-17T20:51:23.380Z,3.30
2022-11-17T20:53:51.256Z,3.17
2022-11-17T20:56:18.373Z,2.60
2022-11-17T20:58:45.554Z,2.40
2022-11-17T21:01:15.084Z,3.00
2022-11-17T21:03:42.652Z,5.03
2022-11-17T21:06:10.518Z,3.70
2022-11-17T21:08:39.937Z,2.43
2022-11-17T21:11:34.666Z,1.73
2022-11-17T21:14:02.546Z,2.00
2022-11-17T21:16:29.803Z,4.07
2022-11-17T21:18:56.689Z,0.50
2022-11-17T21:21:23.656Z,0.80
2022-11-17T21:23:54.025Z,0.70
2022-11-17T21:26:22.857Z,0.50
2022-11-17T21:28:50.460Z,0.50
2022-11-17T21:31:25.919Z,0.33
2022-11-17T21:34:01.218Z,0.40
2022-11-17T21:36:30.183Z,0.40
2022-11-17T21:38:57.913Z,0.50
2022-11-17T21:41:30.654Z,0.70
2022-11-17T21:44:02.203Z,0.63
2022-11-17T21:46:31.816Z,0.60
2022-11-17T21:49:00.314Z,0.50
2022-11-17T21:51:33.512Z,0.57
2022-11-17T21:54:02.886Z,0.80
2022-11-17T21:56:31.886Z,0.90
2022-11-17T21:59:04.720Z,0.53
2022-11-17T22:01:32.944Z,0.50
2022-11-17T22:04:00.203Z,0.63
2022-11-17T22:06:27.870Z,0.60
2022-11-17T22:08:56.298Z,0.50
2022-11-17T22:11:38.184Z,0.67
2022-11-17T22:14:08.578Z,0.57
2022-11-17T22:16:41.637Z,0.47
2022-11-17T22:19:09.708Z,0.70
2022-11-17T22:21:37.950Z,0.80
2022-11-17T22:24:06.528Z,0.70
2022-11-17T22:26:35.870Z,0.60
2022-11-17T22:29:02.870Z,0.80
2022-11-17T22:31:29.683Z,0.33
2022-11-17T22:33:56.840Z,0.70
2022-11-17T22:36:23.701Z,0.60
2022-11-17T22:38:52.215Z,0.60
2022-11-17T22:41:20.935Z,1.00
2022-11-17T22:43:55.647Z,0.43
2022-11-17T22:46:24.921Z,0.33
2022-11-17T22:48:52.395Z,0.40
2022-11-17T22:51:38.399Z,0.60
2022-11-17T22:54:06.811Z,0.50
2022-11-17T22:56:34.043Z,0.63
2022-11-17T22:59:01.111Z,0.50
2022-11-17T23:01:28.007Z,0.60
2022-11-17T23:03:54.954Z,0.57
2022-11-17T23:06:24.771Z,0.60
2022-11-17T23:08:51.695Z,0.50
2022-11-17T23:14:08.082Z,0.67
2022-11-17T23:16:38.868Z,0.60
2022-11-17T23:19:06.864Z,0.70
2022-11-17T23:21:33.983Z,0.57
2022-11-17T23:24:00.896Z,0.47
2022-11-17T23:26:27.814Z,0.57
2022-11-17T23:28:54.696Z,0.37
2022-11-17T23:31:21.624Z,0.53
2022-11-17T23:33:48.979Z,0.30
2022-11-17T23:36:18.755Z,0.30
2022-11-17T23:38:46.232Z,0.63
2022-11-17T23:41:15.631Z,0.23
2022-11-17T23:43:43.399Z,0.30
2022-11-17T23:46:13.266Z,0.33
2022-11-17T23:48:41.022Z,0.50
2022-11-17T23:51:17.414Z,0.30
2022-11-17T23:53:44.916Z,0.27
2022-11-17T23:56:12.347Z,0.40
2022-11-17T23:58:40.154Z,0.50
